sensor_id;sensor_type;location;lat;lon;timestamp;temperature;humidity
37806;DHT22;25082;50.870;0.022;2022-08-18T00:02:23;21.90;75.00
37806;DHT22;25082;50.870;0.022;2022-08-18T00:04:50;21.90;74.90
37806;DHT22;25082;50.870;0.022;2022-08-18T00:07:22;21.90;75.00
37806;DHT22;25082;50.870;0.022;2022-08-18T00:09:48;21.90;74.90
37806;DHT22;25082;50.870;0.022;2022-08-18T00:12:17;21.90;74.90
37806;DHT22;25082;50.870;0.022;2022-08-18T00:14:44;21.90;74.80
37806;DHT22;25082;50.870;0.022;2022-08-18T00:17:10;21.90;74.90
37806;DHT22;25082;50.870;0.022;2022-08-18T00:19:36;21.90;74.90
37806;DHT22;25082;50.870;0.022;2022-08-18T00:22:02;21.90;74.80
37806;DHT22;25082;50.870;0.022;2022-08-18T00:24:27;21.90;74.80
37806;DHT22;25082;50.870;0.022;2022-08-18T00:26:53;21.80;74.80
37806;DHT22;25082;50.870;0.022;2022-08-18T00:29:19;21.90;74.70
37806;DHT22;25082;50.870;0.022;2022-08-18T00:31:45;21.90;74.70
37806;DHT22;25082;50.870;0.022;2022-08-18T00:34:11;21.90;74.70
37806;DHT22;25082;50.870;0.022;2022-08-18T00:36:37;21.90;74.80
37806;DHT22;25082;50.870;0.022;2022-08-18T00:39:03;21.90;74.70
37806;DHT22;25082;50.870;0.022;2022-08-18T00:41:28;21.90;74.70
37806;DHT22;25082;50.870;0.022;2022-08-18T00:43:55;21.90;74.70
37806;DHT22;25082;50.870;0.022;2022-08-18T00:46:34;21.90;74.70
37806;DHT22;25082;50.870;0.022;2022-08-18T00:49:00;21.90;74.60
37806;DHT22;25082;50.870;0.022;2022-08-18T00:51:41;21.90;74.70
37806;DHT22;25082;50.870;0.022;2022-08-18T00:54:13;21.90;74.60
37806;DHT22;25082;50.870;0.022;2022-08-18T00:56:49;21.90;74.60
37806;DHT22;25082;50.870;0.022;2022-08-18T00:59:30;21.80;74.50
37806;DHT22;25082;50.870;0.022;2022-08-18T01:01:59;21.90;74.60
37806;DHT22;25082;50.870;0.022;2022-08-18T01:04:37;21.90;74.50
37806;DHT22;25082;50.870;0.022;2022-08-18T01:07:11;21.90;74.60
37806;DHT22;25082;50.870;0.022;2022-08-18T01:09:38;21.90;74.50
37806;DHT22;25082;50.870;0.022;2022-08-18T01:12:04;21.80;74.50
37806;DHT22;25082;50.870;0.022;2022-08-18T01:14:30;21.90;74.50
37806;DHT22;25082;50.870;0.022;2022-08-18T01:16:56;21.90;74.60
37806;DHT22;25082;50.870;0.022;2022-08-18T01:19:41;21.90;74.50
37806;DHT22;25082;50.870;0.022;2022-08-18T01:22:36;21.90;74.50
37806;DHT22;25082;50.870;0.022;2022-08-18T01:25:05;21.90;74.60
37806;DHT22;25082;50.870;0.022;2022-08-18T01:27:50;21.90;74.50
37806;DHT22;25082;50.870;0.022;2022-08-18T01:30:17;21.90;74.50
37806;DHT22;25082;50.870;0.022;2022-08-18T01:32:44;21.80;74.40
37806;DHT22;25082;50.870;0.022;2022-08-18T01:35:14;21.90;74.40
37806;DHT22;25082;50.870;0.022;2022-08-18T01:37:42;21.90;74.40
37806;DHT22;25082;50.870;0.022;2022-08-18T01:40:09;21.80;74.30
37806;DHT22;25082;50.870;0.022;2022-08-18T01:42:37;21.90;74.30
37806;DHT22;25082;50.870;0.022;2022-08-18T01:45:05;21.90;74.30
37806;DHT22;25082;50.870;0.022;2022-08-18T01:47:33;21.80;74.90
37806;DHT22;25082;50.870;0.022;2022-08-18T01:49:59;21.80;74.30
37806;DHT22;25082;50.870;0.022;2022-08-18T01:52:26;21.90;74.30
37806;DHT22;25082;50.870;0.022;2022-08-18T01:54:54;21.80;74.20
37806;DHT22;25082;50.870;0.022;2022-08-18T01:57:22;21.90;74.30
37806;DHT22;25082;50.870;0.022;2022-08-18T01:59:48;21.80;74.20
37806;DHT22;25082;50.870;0.022;2022-08-18T02:02:18;21.80;74.20
37806;DHT22;25082;50.870;0.022;2022-08-18T02:04:47;21.80;74.30
37806;DHT22;25082;50.870;0.022;2022-08-18T02:07:13;21.90;74.20
37806;DHT22;25082;50.870;0.022;2022-08-18T02:09:40;21.90;74.20
37806;DHT22;25082;50.870;0.022;2022-08-18T02:12:08;21.80;74.30
37806;DHT22;25082;50.870;0.022;2022-08-18T02:14:35;21.80;74.20
37806;DHT22;25082;50.870;0.022;2022-08-18T02:17:03;21.90;74.30
37806;DHT22;25082;50.870;0.022;2022-08-18T02:19:41;21.90;74.30
37806;DHT22;25082;50.870;0.022;2022-08-18T02:22:09;21.90;74.30
37806;DHT22;25082;50.870;0.022;2022-08-18T02:24:36;21.90;74.40
37806;DHT22;25082;50.870;0.022;2022-08-18T02:27:02;21.80;74.80
37806;DHT22;25082;50.870;0.022;2022-08-18T02:29:28;21.80;74.20
37806;DHT22;25082;50.870;0.022;2022-08-18T02:31:54;21.80;74.20
37806;DHT22;25082;50.870;0.022;2022-08-18T02:34:20;21.80;74.10
37806;DHT22;25082;50.870;0.022;2022-08-18T02:36:45;21.80;74.10
37806;DHT22;25082;50.870;0.022;2022-08-18T02:39:11;21.80;74.10
37806;DHT22;25082;50.870;0.022;2022-08-18T02:41:37;21.80;74.00
37806;DHT22;25082;50.870;0.022;2022-08-18T02:44:06;21.80;74.00
37806;DHT22;25082;50.870;0.022;2022-08-18T02:46:32;21.80;74.10
37806;DHT22;25082;50.870;0.022;2022-08-18T02:49:00;21.80;74.00
37806;DHT22;25082;50.870;0.022;2022-08-18T02:51:26;21.80;74.00
37806;DHT22;25082;50.870;0.022;2022-08-18T02:53:53;21.80;73.90
37806;DHT22;25082;50.870;0.022;2022-08-18T02:56:21;21.80;73.90
37806;DHT22;25082;50.870;0.022;2022-08-18T02:59:02;21.80;73.90
37806;DHT22;25082;50.870;0.022;2022-08-18T03:01:32;21.90;74.00
37806;DHT22;25082;50.870;0.022;2022-08-18T03:03:59;21.80;73.90
37806;DHT22;25082;50.870;0.022;2022-08-18T03:06:27;21.80;74.00
37806;DHT22;25082;50.870;0.022;2022-08-18T03:08:54;21.80;74.00
37806;DHT22;25082;50.870;0.022;2022-08-18T03:11:25;21.80;73.90
37806;DHT22;25082;50.870;0.022;2022-08-18T03:13:52;21.80;73.90
37806;DHT22;25082;50.870;0.022;2022-08-18T03:16:19;21.80;73.90
37806;DHT22;25082;50.870;0.022;2022-08-18T03:18:46;21.80;73.90
37806;DHT22;25082;50.870;0.022;2022-08-18T03:21:16;21.80;73.90
37806;DHT22;25082;50.870;0.022;2022-08-18T03:23:43;21.80;73.90
37806;DHT22;25082;50.870;0.022;2022-08-18T03:26:10;21.80;73.80
37806;DHT22;25082;50.870;0.022;2022-08-18T03:28:38;21.80;73.80
37806;DHT22;25082;50.870;0.022;2022-08-18T03:31:06;21.80;73.90
37806;DHT22;25082;50.870;0.022;2022-08-18T03:33:32;21.80;74.00
37806;DHT22;25082;50.870;0.022;2022-08-18T03:36:09;21.80;74.00
37806;DHT22;25082;50.870;0.022;2022-08-18T03:38:37;21.80;73.90
37806;DHT22;25082;50.870;0.022;2022-08-18T03:41:15;21.80;73.80
37806;DHT22;25082;50.870;0.022;2022-08-18T03:43:41;21.80;73.90
37806;DHT22;25082;50.870;0.022;2022-08-18T03:46:10;21.80;73.80
37806;DHT22;25082;50.870;0.022;2022-08-18T03:48:38;21.80;73.80
37806;DHT22;25082;50.870;0.022;2022-08-18T03:51:10;21.80;73.80
37806;DHT22;25082;50.870;0.022;2022-08-18T03:53:38;21.80;73.80
37806;DHT22;25082;50.870;0.022;2022-08-18T03:56:08;21.80;73.90
37806;DHT22;25082;50.870;0.022;2022-08-18T03:58:41;21.80;73.80
37806;DHT22;25082;50.870;0.022;2022-08-18T04:01:11;21.80;73.70
37806;DHT22;25082;50.870;0.022;2022-08-18T04:03:38;21.80;73.80
37806;DHT22;25082;50.870;0.022;2022-08-18T04:06:04;21.80;73.70
37806;DHT22;25082;50.870;0.022;2022-08-18T04:08:30;21.80;73.70
37806;DHT22;25082;50.870;0.022;2022-08-18T04:10:55;21.80;73.90
37806;DHT22;25082;50.870;0.022;2022-08-18T04:13:22;21.80;73.80
37806;DHT22;25082;50.870;0.022;2022-08-18T04:15:48;21.80;73.70
37806;DHT22;25082;50.870;0.022;2022-08-18T04:18:14;21.80;73.70
37806;DHT22;25082;50.870;0.022;2022-08-18T04:20:40;21.80;73.80
37806;DHT22;25082;50.870;0.022;2022-08-18T04:23:05;21.80;73.70
37806;DHT22;25082;50.870;0.022;2022-08-18T04:25:31;21.80;73.90
37806;DHT22;25082;50.870;0.022;2022-08-18T04:27:57;21.80;73.60
37806;DHT22;25082;50.870;0.022;2022-08-18T04:30:26;21.80;73.80
37806;DHT22;25082;50.870;0.022;2022-08-18T04:32:53;21.80;73.60
37806;DHT22;25082;50.870;0.022;2022-08-18T04:35:19;21.80;73.80
37806;DHT22;25082;50.870;0.022;2022-08-18T04:37:46;21.80;73.60
37806;DHT22;25082;50.870;0.022;2022-08-18T04:40:12;21.80;73.70
37806;DHT22;25082;50.870;0.022;2022-08-18T04:42:39;21.80;73.70
37806;DHT22;25082;50.870;0.022;2022-08-18T04:45:05;21.80;73.80
37806;DHT22;25082;50.870;0.022;2022-08-18T04:47:31;21.80;73.60
37806;DHT22;25082;50.870;0.022;2022-08-18T04:49:57;21.80;73.60
37806;DHT22;25082;50.870;0.022;2022-08-18T04:52:23;21.80;73.80
37806;DHT22;25082;50.870;0.022;2022-08-18T04:55:08;21.80;73.60
37806;DHT22;25082;50.870;0.022;2022-08-18T04:57:34;21.80;73.60
37806;DHT22;25082;50.870;0.022;2022-08-18T05:00:01;21.80;73.70
37806;DHT22;25082;50.870;0.022;2022-08-18T05:02:27;21.80;73.80
37806;DHT22;25082;50.870;0.022;2022-08-18T05:04:53;21.80;73.60
37806;DHT22;25082;50.870;0.022;2022-08-18T05:07:20;21.80;73.70
37806;DHT22;25082;50.870;0.022;2022-08-18T05:09:50;21.80;73.60
37806;DHT22;25082;50.870;0.022;2022-08-18T05:12:19;21.80;73.60
37806;DHT22;25082;50.870;0.022;2022-08-18T05:14:46;21.80;73.60
37806;DHT22;25082;50.870;0.022;2022-08-18T05:17:13;21.80;73.50
37806;DHT22;25082;50.870;0.022;2022-08-18T05:19:39;21.80;73.60
37806;DHT22;25082;50.870;0.022;2022-08-18T05:22:05;21.80;73.60
37806;DHT22;25082;50.870;0.022;2022-08-18T05:24:32;21.80;73.60
37806;DHT22;25082;50.870;0.022;2022-08-18T05:27:00;21.80;73.60
37806;DHT22;25082;50.870;0.022;2022-08-18T05:29:26;21.80;73.60
37806;DHT22;25082;50.870;0.022;2022-08-18T05:31:53;21.80;73.70
37806;DHT22;25082;50.870;0.022;2022-08-18T05:34:20;21.80;73.60
37806;DHT22;25082;50.870;0.022;2022-08-18T05:40:02;21.80;73.50
37806;DHT22;25082;50.870;0.022;2022-08-18T05:42:36;21.80;73.60
37806;DHT22;25082;50.870;0.022;2022-08-18T05:45:13;21.80;73.60
37806;DHT22;25082;50.870;0.022;2022-08-18T05:47:40;21.80;73.60
37806;DHT22;25082;50.870;0.022;2022-08-18T05:50:27;21.80;73.60
37806;DHT22;25082;50.870;0.022;2022-08-18T05:53:15;21.80;73.50
37806;DHT22;25082;50.870;0.022;2022-08-18T05:55:57;21.80;73.70
37806;DHT22;25082;50.870;0.022;2022-08-18T05:58:48;21.80;73.60
37806;DHT22;25082;50.870;0.022;2022-08-18T06:01:19;21.80;73.70
37806;DHT22;25082;50.870;0.022;2022-08-18T06:04:39;21.80;73.50
37806;DHT22;25082;50.870;0.022;2022-08-18T06:06:45;21.80;73.60
37806;DHT22;25082;50.870;0.022;2022-08-18T06:11:42;21.80;73.50
37806;DHT22;25082;50.870;0.022;2022-08-18T06:14:09;21.80;73.60
37806;DHT22;25082;50.870;0.022;2022-08-18T06:16:55;21.80;73.60
37806;DHT22;25082;50.870;0.022;2022-08-18T06:19:31;21.80;73.50
37806;DHT22;25082;50.870;0.022;2022-08-18T06:25:12;21.80;73.60
37806;DHT22;25082;50.870;0.022;2022-08-18T06:27:58;21.80;73.60
37806;DHT22;25082;50.870;0.022;2022-08-18T06:39:42;21.80;73.60
37806;DHT22;25082;50.870;0.022;2022-08-18T06:41:43;21.80;73.60
37806;DHT22;25082;50.870;0.022;2022-08-18T06:47:06;21.80;73.50
37806;DHT22;25082;50.870;0.022;2022-08-18T06:49:51;21.80;73.60
37806;DHT22;25082;50.870;0.022;2022-08-18T06:52:39;21.80;73.50
37806;DHT22;25082;50.870;0.022;2022-08-18T06:55:17;21.80;73.60
37806;DHT22;25082;50.870;0.022;2022-08-18T06:57:58;21.80;73.60
37806;DHT22;25082;50.870;0.022;2022-08-18T07:00:26;21.80;73.60
37806;DHT22;25082;50.870;0.022;2022-08-18T07:05:27;21.80;73.50
37806;DHT22;25082;50.870;0.022;2022-08-18T07:10:43;21.80;73.50
37806;DHT22;25082;50.870;0.022;2022-08-18T07:13:17;21.80;73.50
37806;DHT22;25082;50.870;0.022;2022-08-18T07:15:43;21.90;73.60
37806;DHT22;25082;50.870;0.022;2022-08-18T07:18:11;21.80;73.50
37806;DHT22;25082;50.870;0.022;2022-08-18T07:20:57;21.80;73.50
37806;DHT22;25082;50.870;0.022;2022-08-18T07:23:27;21.80;73.60
37806;DHT22;25082;50.870;0.022;2022-08-18T07:26:13;21.80;73.50
37806;DHT22;25082;50.870;0.022;2022-08-18T07:34:02;21.90;73.50
37806;DHT22;25082;50.870;0.022;2022-08-18T07:36:32;21.90;73.50
37806;DHT22;25082;50.870;0.022;2022-08-18T07:39:13;21.90;73.50
37806;DHT22;25082;50.870;0.022;2022-08-18T07:42:23;21.90;73.80
37806;DHT22;25082;50.870;0.022;2022-08-18T07:44:59;21.90;73.60
37806;DHT22;25082;50.870;0.022;2022-08-18T07:47:44;21.90;73.70
37806;DHT22;25082;50.870;0.022;2022-08-18T07:50:13;21.90;73.90
37806;DHT22;25082;50.870;0.022;2022-08-18T07:55:31;21.90;77.00
37806;DHT22;25082;50.870;0.022;2022-08-18T07:58:25;21.80;78.10
37806;DHT22;25082;50.870;0.022;2022-08-18T08:01:00;21.70;78.10
37806;DHT22;25082;50.870;0.022;2022-08-18T08:06:43;21.70;79.80
37806;DHT22;25082;50.870;0.022;2022-08-18T08:09:27;21.60;79.90
37806;DHT22;25082;50.870;0.022;2022-08-18T08:12:34;21.60;79.30
37806;DHT22;25082;50.870;0.022;2022-08-18T08:15:22;21.70;79.90
37806;DHT22;25082;50.870;0.022;2022-08-18T08:18:15;21.60;80.10
37806;DHT22;25082;50.870;0.022;2022-08-18T08:20:46;21.70;80.00
37806;DHT22;25082;50.870;0.022;2022-08-18T08:23:34;21.60;80.10
37806;DHT22;25082;50.870;0.022;2022-08-18T08:26:27;21.70;80.50
37806;DHT22;25082;50.870;0.022;2022-08-18T08:31:31;21.70;80.30
37806;DHT22;25082;50.870;0.022;2022-08-18T08:34:23;21.70;81.00
37806;DHT22;25082;50.870;0.022;2022-08-18T08:36:58;21.70;81.60
37806;DHT22;25082;50.870;0.022;2022-08-18T08:39:33;21.70;81.10
37806;DHT22;25082;50.870;0.022;2022-08-18T08:42:13;21.70;81.40
37806;DHT22;25082;50.870;0.022;2022-08-18T08:47:33;21.70;81.10
37806;DHT22;25082;50.870;0.022;2022-08-18T08:50:13;21.70;80.60
37806;DHT22;25082;50.870;0.022;2022-08-18T08:53:01;21.80;80.10
37806;DHT22;25082;50.870;0.022;2022-08-18T08:55:34;21.80;80.60
37806;DHT22;25082;50.870;0.022;2022-08-18T09:00:34;21.80;79.40
37806;DHT22;25082;50.870;0.022;2022-08-18T09:03:05;21.90;79.70
37806;DHT22;25082;50.870;0.022;2022-08-18T09:08:30;21.90;79.00
37806;DHT22;25082;50.870;0.022;2022-08-18T09:13:46;21.90;80.10
37806;DHT22;25082;50.870;0.022;2022-08-18T09:18:56;21.90;79.10
37806;DHT22;25082;50.870;0.022;2022-08-18T09:40:15;22.10;78.80
37806;DHT22;25082;50.870;0.022;2022-08-18T09:43:16;22.00;78.90
37806;DHT22;25082;50.870;0.022;2022-08-18T09:50:56;22.00;78.50
37806;DHT22;25082;50.870;0.022;2022-08-18T09:56:15;22.10;78.30
37806;DHT22;25082;50.870;0.022;2022-08-18T09:58:49;22.10;78.10
37806;DHT22;25082;50.870;0.022;2022-08-18T10:06:47;22.10;77.90
37806;DHT22;25082;50.870;0.022;2022-08-18T10:32:20;22.20;77.40
37806;DHT22;25082;50.870;0.022;2022-08-18T10:34:55;22.20;77.30
37806;DHT22;25082;50.870;0.022;2022-08-18T10:40:15;22.20;77.50
37806;DHT22;25082;50.870;0.022;2022-08-18T10:42:48;22.20;78.10
37806;DHT22;25082;50.870;0.022;2022-08-18T10:45:18;22.20;77.60
37806;DHT22;25082;50.870;0.022;2022-08-18T10:48:19;22.20;77.50
37806;DHT22;25082;50.870;0.022;2022-08-18T10:50:50;22.20;77.60
37806;DHT22;25082;50.870;0.022;2022-08-18T10:53:19;22.30;77.60
37806;DHT22;25082;50.870;0.022;2022-08-18T10:55:59;22.30;79.00
37806;DHT22;25082;50.870;0.022;2022-08-18T10:58:43;22.30;79.30
37806;DHT22;25082;50.870;0.022;2022-08-18T11:01:35;22.30;78.80
37806;DHT22;25082;50.870;0.022;2022-08-18T11:07:13;22.30;78.90
37806;DHT22;25082;50.870;0.022;2022-08-18T11:09:42;22.30;78.60
37806;DHT22;25082;50.870;0.022;2022-08-18T11:12:11;22.30;78.50
37806;DHT22;25082;50.870;0.022;2022-08-18T11:17:28;22.30;78.90
37806;DHT22;25082;50.870;0.022;2022-08-18T11:19:59;22.30;79.20
37806;DHT22;25082;50.870;0.022;2022-08-18T11:22:31;22.30;78.80
37806;DHT22;25082;50.870;0.022;2022-08-18T11:24:58;22.30;78.50
37806;DHT22;25082;50.870;0.022;2022-08-18T11:27:30;22.30;78.60
37806;DHT22;25082;50.870;0.022;2022-08-18T11:30:02;22.30;78.60
37806;DHT22;25082;50.870;0.022;2022-08-18T11:32:37;22.30;78.60
37806;DHT22;25082;50.870;0.022;2022-08-18T11:35:11;22.30;78.50
37806;DHT22;25082;50.870;0.022;2022-08-18T11:40:40;22.30;79.40
37806;DHT22;25082;50.870;0.022;2022-08-18T11:43:13;22.40;79.20
37806;DHT22;25082;50.870;0.022;2022-08-18T11:58:49;22.40;79.30
37806;DHT22;25082;50.870;0.022;2022-08-18T12:04:22;22.40;78.70
37806;DHT22;25082;50.870;0.022;2022-08-18T12:07:13;22.50;78.70
37806;DHT22;25082;50.870;0.022;2022-08-18T12:09:44;22.50;78.40
37806;DHT22;25082;50.870;0.022;2022-08-18T12:12:26;22.50;78.90
37806;DHT22;25082;50.870;0.022;2022-08-18T12:14:59;22.50;78.40
37806;DHT22;25082;50.870;0.022;2022-08-18T12:17:27;22.50;78.70
37806;DHT22;25082;50.870;0.022;2022-08-18T12:19:53;22.50;78.80
37806;DHT22;25082;50.870;0.022;2022-08-18T12:22:21;22.50;78.40
37806;DHT22;25082;50.870;0.022;2022-08-18T12:24:47;22.50;78.30
37806;DHT22;25082;50.870;0.022;2022-08-18T12:27:15;22.50;78.40
37806;DHT22;25082;50.870;0.022;2022-08-18T12:29:42;22.50;77.90
37806;DHT22;25082;50.870;0.022;2022-08-18T12:32:08;22.50;77.80
37806;DHT22;25082;50.870;0.022;2022-08-18T12:34:34;22.50;78.20
37806;DHT22;25082;50.870;0.022;2022-08-18T12:37:00;22.50;77.30
37806;DHT22;25082;50.870;0.022;2022-08-18T12:39:27;22.50;76.90
37806;DHT22;25082;50.870;0.022;2022-08-18T12:41:53;22.50;76.90
37806;DHT22;25082;50.870;0.022;2022-08-18T12:44:19;22.50;77.60
37806;DHT22;25082;50.870;0.022;2022-08-18T12:46:46;22.50;77.50
37806;DHT22;25082;50.870;0.022;2022-08-18T12:49:20;22.50;77.40
37806;DHT22;25082;50.870;0.022;2022-08-18T12:51:47;22.60;78.00
37806;DHT22;25082;50.870;0.022;2022-08-18T12:54:13;22.60;77.30
37806;DHT22;25082;50.870;0.022;2022-08-18T12:56:40;22.50;77.40
37806;DHT22;25082;50.870;0.022;2022-08-18T12:59:08;22.60;77.50
37806;DHT22;25082;50.870;0.022;2022-08-18T13:01:37;22.60;77.50
37806;DHT22;25082;50.870;0.022;2022-08-18T13:04:04;22.60;77.20
37806;DHT22;25082;50.870;0.022;2022-08-18T13:06:32;22.60;77.00
37806;DHT22;25082;50.870;0.022;2022-08-18T13:08:59;22.60;77.20
37806;DHT22;25082;50.870;0.022;2022-08-18T13:11:25;22.60;77.50
37806;DHT22;25082;50.870;0.022;2022-08-18T13:13:52;22.60;76.40
37806;DHT22;25082;50.870;0.022;2022-08-18T13:16:18;22.60;76.10
37806;DHT22;25082;50.870;0.022;2022-08-18T13:18:44;22.60;76.20
37806;DHT22;25082;50.870;0.022;2022-08-18T13:21:14;22.60;76.00
37806;DHT22;25082;50.870;0.022;2022-08-18T13:23:40;22.60;76.20
37806;DHT22;25082;50.870;0.022;2022-08-18T13:26:08;22.60;76.10
37806;DHT22;25082;50.870;0.022;2022-08-18T13:28:37;22.60;76.20
37806;DHT22;25082;50.870;0.022;2022-08-18T13:31:05;22.60;76.00
37806;DHT22;25082;50.870;0.022;2022-08-18T13:33:31;22.60;76.20
37806;DHT22;25082;50.870;0.022;2022-08-18T13:35:57;22.60;76.80
37806;DHT22;25082;50.870;0.022;2022-08-18T13:38:23;22.60;76.10
37806;DHT22;25082;50.870;0.022;2022-08-18T13:40:51;22.60;76.50
37806;DHT22;25082;50.870;0.022;2022-08-18T13:43:22;22.50;76.70
37806;DHT22;25082;50.870;0.022;2022-08-18T13:45:50;22.60;76.60
37806;DHT22;25082;50.870;0.022;2022-08-18T13:48:16;22.60;75.80
37806;DHT22;25082;50.870;0.022;2022-08-18T13:50:43;22.60;76.30
37806;DHT22;25082;50.870;0.022;2022-08-18T13:53:14;22.60;76.70
37806;DHT22;25082;50.870;0.022;2022-08-18T13:55:44;22.60;76.70
37806;DHT22;25082;50.870;0.022;2022-08-18T13:58:10;22.60;76.90
37806;DHT22;25082;50.870;0.022;2022-08-18T14:00:38;22.60;76.30
37806;DHT22;25082;50.870;0.022;2022-08-18T14:03:04;22.60;75.90
37806;DHT22;25082;50.870;0.022;2022-08-18T14:05:31;22.60;75.80
37806;DHT22;25082;50.870;0.022;2022-08-18T14:07:58;22.60;75.60
37806;DHT22;25082;50.870;0.022;2022-08-18T14:10:25;22.60;75.30
37806;DHT22;25082;50.870;0.022;2022-08-18T14:12:53;22.60;74.80
37806;DHT22;25082;50.870;0.022;2022-08-18T14:15:20;22.60;74.90
37806;DHT22;25082;50.870;0.022;2022-08-18T14:17:47;22.60;75.30
37806;DHT22;25082;50.870;0.022;2022-08-18T14:20:13;22.60;75.30
37806;DHT22;25082;50.870;0.022;2022-08-18T14:22:59;22.60;75.50
37806;DHT22;25082;50.870;0.022;2022-08-18T14:25:43;22.60;76.00
37806;DHT22;25082;50.870;0.022;2022-08-18T14:28:29;22.60;75.40
37806;DHT22;25082;50.870;0.022;2022-08-18T14:30:59;22.60;75.50
37806;DHT22;25082;50.870;0.022;2022-08-18T14:33:27;22.60;75.90
37806;DHT22;25082;50.870;0.022;2022-08-18T14:35:53;22.70;75.30
37806;DHT22;25082;50.870;0.022;2022-08-18T14:38:19;22.60;75.20
37806;DHT22;25082;50.870;0.022;2022-08-18T14:40:46;22.60;75.20
37806;DHT22;25082;50.870;0.022;2022-08-18T14:43:14;22.70;75.40
37806;DHT22;25082;50.870;0.022;2022-08-18T14:45:42;22.60;75.00
37806;DHT22;25082;50.870;0.022;2022-08-18T14:48:16;22.70;74.90
37806;DHT22;25082;50.870;0.022;2022-08-18T14:50:47;22.60;74.90
37806;DHT22;25082;50.870;0.022;2022-08-18T14:53:18;22.70;74.90
37806;DHT22;25082;50.870;0.022;2022-08-18T14:55:45;22.70;74.80
37806;DHT22;25082;50.870;0.022;2022-08-18T14:58:12;22.70;74.70
37806;DHT22;25082;50.870;0.022;2022-08-18T15:00:38;22.70;74.50
37806;DHT22;25082;50.870;0.022;2022-08-18T15:03:04;22.70;74.50
37806;DHT22;25082;50.870;0.022;2022-08-18T15:05:32;22.70;74.40
37806;DHT22;25082;50.870;0.022;2022-08-18T15:07:59;22.70;74.30
37806;DHT22;25082;50.870;0.022;2022-08-18T15:10:28;22.70;74.30
37806;DHT22;25082;50.870;0.022;2022-08-18T15:12:54;22.70;74.90
37806;DHT22;25082;50.870;0.022;2022-08-18T15:15:22;22.70;74.20
37806;DHT22;25082;50.870;0.022;2022-08-18T15:17:49;22.70;74.40
37806;DHT22;25082;50.870;0.022;2022-08-18T15:20:15;22.80;74.60
37806;DHT22;25082;50.870;0.022;2022-08-18T15:22:42;22.70;74.20
37806;DHT22;25082;50.870;0.022;2022-08-18T15:25:27;22.80;74.20
37806;DHT22;25082;50.870;0.022;2022-08-18T15:28:18;22.80;74.10
37806;DHT22;25082;50.870;0.022;2022-08-18T15:30:47;22.80;74.00
37806;DHT22;25082;50.870;0.022;2022-08-18T15:33:13;22.80;73.90
37806;DHT22;25082;50.870;0.022;2022-08-18T15:35:44;22.80;73.80
37806;DHT22;25082;50.870;0.022;2022-08-18T15:38:12;22.80;73.80
37806;DHT22;25082;50.870;0.022;2022-08-18T15:40:57;22.80;73.50
37806;DHT22;25082;50.870;0.022;2022-08-18T15:43:25;22.80;73.20
37806;DHT22;25082;50.870;0.022;2022-08-18T15:45:52;22.80;73.20
37806;DHT22;25082;50.870;0.022;2022-08-18T15:48:20;22.80;73.10
37806;DHT22;25082;50.870;0.022;2022-08-18T15:50:47;22.80;72.90
37806;DHT22;25082;50.870;0.022;2022-08-18T15:53:16;22.80;72.80
37806;DHT22;25082;50.870;0.022;2022-08-18T15:55:43;22.80;72.90
37806;DHT22;25082;50.870;0.022;2022-08-18T15:58:10;22.80;73.00
37806;DHT22;25082;50.870;0.022;2022-08-18T16:00:37;22.90;73.20
37806;DHT22;25082;50.870;0.022;2022-08-18T16:03:05;22.90;73.20
37806;DHT22;25082;50.870;0.022;2022-08-18T16:05:38;22.90;73.00
37806;DHT22;25082;50.870;0.022;2022-08-18T16:08:07;22.90;73.00
37806;DHT22;25082;50.870;0.022;2022-08-18T16:10:35;22.90;73.00
37806;DHT22;25082;50.870;0.022;2022-08-18T16:13:02;22.90;73.00
37806;DHT22;25082;50.870;0.022;2022-08-18T16:15:32;22.90;73.10
37806;DHT22;25082;50.870;0.022;2022-08-18T16:17:59;22.90;72.80
37806;DHT22;25082;50.870;0.022;2022-08-18T16:20:25;22.90;72.80
37806;DHT22;25082;50.870;0.022;2022-08-18T16:22:54;22.90;72.80
37806;DHT22;25082;50.870;0.022;2022-08-18T16:25:20;22.90;72.60
37806;DHT22;25082;50.870;0.022;2022-08-18T16:27:46;22.90;72.70
37806;DHT22;25082;50.870;0.022;2022-08-18T16:30:16;22.90;72.80
37806;DHT22;25082;50.870;0.022;2022-08-18T16:32:42;22.90;72.80
37806;DHT22;25082;50.870;0.022;2022-08-18T16:35:09;22.90;72.80
37806;DHT22;25082;50.870;0.022;2022-08-18T16:37:35;22.90;72.90
37806;DHT22;25082;50.870;0.022;2022-08-18T16:40:01;22.90;72.80
37806;DHT22;25082;50.870;0.022;2022-08-18T16:42:27;22.90;72.80
37806;DHT22;25082;50.870;0.022;2022-08-18T16:45:02;22.90;72.80
37806;DHT22;25082;50.870;0.022;2022-08-18T16:47:31;22.90;72.80
37806;DHT22;25082;50.870;0.022;2022-08-18T16:49:57;23.00;72.70
37806;DHT22;25082;50.870;0.022;2022-08-18T16:52:23;23.00;72.50
37806;DHT22;25082;50.870;0.022;2022-08-18T16:54:49;23.00;72.50
37806;DHT22;25082;50.870;0.022;2022-08-18T16:57:15;23.00;72.40
37806;DHT22;25082;50.870;0.022;2022-08-18T17:00:05;23.00;72.30
37806;DHT22;25082;50.870;0.022;2022-08-18T17:02:49;23.00;72.20
37806;DHT22;25082;50.870;0.022;2022-08-18T17:05:33;23.00;72.00
37806;DHT22;25082;50.870;0.022;2022-08-18T17:08:00;22.90;71.90
37806;DHT22;25082;50.870;0.022;2022-08-18T17:10:26;23.00;72.10
37806;DHT22;25082;50.870;0.022;2022-08-18T17:12:51;22.90;72.00
37806;DHT22;25082;50.870;0.022;2022-08-18T17:15:17;22.90;72.00
37806;DHT22;25082;50.870;0.022;2022-08-18T17:17:43;22.90;71.90
37806;DHT22;25082;50.870;0.022;2022-08-18T17:20:10;22.90;72.10
37806;DHT22;25082;50.870;0.022;2022-08-18T17:22:35;22.90;72.00
37806;DHT22;25082;50.870;0.022;2022-08-18T17:25:02;22.90;72.00
37806;DHT22;25082;50.870;0.022;2022-08-18T17:27:32;22.90;72.20
37806;DHT22;25082;50.870;0.022;2022-08-18T17:32:52;22.90;72.20
37806;DHT22;25082;50.870;0.022;2022-08-18T17:35:26;22.90;72.20
37806;DHT22;25082;50.870;0.022;2022-08-18T17:38:09;22.90;72.10
37806;DHT22;25082;50.870;0.022;2022-08-18T17:40:46;22.90;72.10
37806;DHT22;25082;50.870;0.022;2022-08-18T17:43:20;22.80;72.10
37806;DHT22;25082;50.870;0.022;2022-08-18T17:45:51;22.80;72.00
37806;DHT22;25082;50.870;0.022;2022-08-18T17:48:35;22.80;72.00
37806;DHT22;25082;50.870;0.022;2022-08-18T17:51:09;22.80;72.00
37806;DHT22;25082;50.870;0.022;2022-08-18T17:53:54;22.80;71.50
37806;DHT22;25082;50.870;0.022;2022-08-18T17:56:29;22.80;71.10
37806;DHT22;25082;50.870;0.022;2022-08-18T17:59:08;22.80;71.20
37806;DHT22;25082;50.870;0.022;2022-08-18T18:01:34;22.70;71.30
37806;DHT22;25082;50.870;0.022;2022-08-18T18:04:01;22.70;71.20
37806;DHT22;25082;50.870;0.022;2022-08-18T18:11:39;22.70;71.60
37806;DHT22;25082;50.870;0.022;2022-08-18T18:14:28;22.70;71.70
37806;DHT22;25082;50.870;0.022;2022-08-18T18:17:07;22.70;71.80
37806;DHT22;25082;50.870;0.022;2022-08-18T18:19:40;22.70;71.80